sensor_id;sensor_type;location;lat;lon;timestamp;temperature;humidity
18444;DHT22;9350;53.176;8.194;2022-11-20T00:01:17;1.80;99.90
18444;DHT22;9350;53.176;8.194;2022-11-20T00:03:45;1.80;99.90
18444;DHT22;9350;53.176;8.194;2022-11-20T00:06:13;1.80;99.90
18444;DHT22;9350;53.176;8.194;2022-11-20T00:08:42;1.80;99.90
18444;DHT22;9350;53.176;8.194;2022-11-20T00:11:10;1.70;99.90
18444;DHT22;9350;53.176;8.194;2022-11-20T00:13:37;1.80;99.90
18444;DHT22;9350;53.176;8.194;2022-11-20T00:16:06;1.80;99.90
18444;DHT22;9350;53.176;8.194;2022-11-20T00:18:35;1.80;99.90
18444;DHT22;9350;53.176;8.194;2022-11-20T00:21:02;1.80;99.90
18444;DHT22;9350;53.176;8.194;2022-11-20T00:23:29;1.80;99.90
18444;DHT22;9350;53.176;8.194;2022-11-20T00:26:01;1.80;99.90
18444;DHT22;9350;53.176;8.194;2022-11-20T00:28:28;1.90;99.90
18444;DHT22;9350;53.176;8.194;2022-11-20T00:31:00;1.80;99.90
18444;DHT22;9350;53.176;8.194;2022-11-20T00:33:28;2.00;99.90
18444;DHT22;9350;53.176;8.194;2022-11-20T00:35:59;1.90;99.90
18444;DHT22;9350;53.176;8.194;2022-11-20T00:38:26;1.80;99.90
18444;DHT22;9350;53.176;8.194;2022-11-20T00:40:55;1.90;99.90
18444;DHT22;9350;53.176;8.194;2022-11-20T00:43:23;1.90;99.90
18444;DHT22;9350;53.176;8.194;2022-11-20T00:45:51;1.90;99.90
18444;DHT22;9350;53.176;8.194;2022-11-20T00:48:17;1.90;99.90
18444;DHT22;9350;53.176;8.194;2022-11-20T00:50:44;1.90;99.90
18444;DHT22;9350;53.176;8.194;2022-11-20T00:53:11;1.90;99.90
18444;DHT22;9350;53.176;8.194;2022-11-20T00:55:37;1.90;99.90
18444;DHT22;9350;53.176;8.194;2022-11-20T00:58:04;1.90;99.90
18444;DHT22;9350;53.176;8.194;2022-11-20T01:00:32;1.90;99.90
18444;DHT22;9350;53.176;8.194;2022-11-20T01:02:59;1.90;99.90
18444;DHT22;9350;53.176;8.194;2022-11-20T01:05:26;2.00;99.90
18444;DHT22;9350;53.176;8.194;2022-11-20T01:07:53;1.80;99.90
18444;DHT22;9350;53.176;8.194;2022-11-20T01:10:19;1.90;99.90
18444;DHT22;9350;53.176;8.194;2022-11-20T01:12:46;1.90;99.90
18444;DHT22;9350;53.176;8.194;2022-11-20T01:15:35;1.90;99.90
18444;DHT22;9350;53.176;8.194;2022-11-20T01:18:02;1.90;99.90
18444;DHT22;9350;53.176;8.194;2022-11-20T01:20:29;2.00;99.90
18444;DHT22;9350;53.176;8.194;2022-11-20T01:22:55;1.90;99.90
18444;DHT22;9350;53.176;8.194;2022-11-20T01:25:22;2.00;99.90
18444;DHT22;9350;53.176;8.194;2022-11-20T01:27:49;1.90;99.90
18444;DHT22;9350;53.176;8.194;2022-11-20T01:30:16;1.90;99.90
18444;DHT22;9350;53.176;8.194;2022-11-20T01:32:44;1.80;99.90
18444;DHT22;9350;53.176;8.194;2022-11-20T01:35:11;1.90;99.90
18444;DHT22;9350;53.176;8.194;2022-11-20T01:37:37;1.90;99.90
18444;DHT22;9350;53.176;8.194;2022-11-20T01:40:05;1.90;99.90
18444;DHT22;9350;53.176;8.194;2022-11-20T01:42:32;2.00;99.90
18444;DHT22;9350;53.176;8.194;2022-11-20T01:45:56;1.90;99.90
18444;DHT22;9350;53.176;8.194;2022-11-20T01:48:28;1.90;99.90
18444;DHT22;9350;53.176;8.194;2022-11-20T01:50:58;1.90;99.90
18444;DHT22;9350;53.176;8.194;2022-11-20T01:53:30;1.90;99.90
18444;DHT22;9350;53.176;8.194;2022-11-20T01:56:00;1.90;99.90
18444;DHT22;9350;53.176;8.194;2022-11-20T01:58:30;1.80;99.90
18444;DHT22;9350;53.176;8.194;2022-11-20T02:00:58;1.90;99.90
18444;DHT22;9350;53.176;8.194;2022-11-20T02:03:26;2.00;99.90
18444;DHT22;9350;53.176;8.194;2022-11-20T02:05:57;1.90;99.90
18444;DHT22;9350;53.176;8.194;2022-11-20T02:08:28;2.00;99.90
18444;DHT22;9350;53.176;8.194;2022-11-20T02:10:54;1.90;99.90
18444;DHT22;9350;53.176;8.194;2022-11-20T02:13:21;1.90;99.90
18444;DHT22;9350;53.176;8.194;2022-11-20T02:16:10;1.90;99.90
18444;DHT22;9350;53.176;8.194;2022-11-20T02:18:40;1.90;99.90
18444;DHT22;9350;53.176;8.194;2022-11-20T02:21:15;1.80;99.90
18444;DHT22;9350;53.176;8.194;2022-11-20T02:23:59;1.90;99.90
18444;DHT22;9350;53.176;8.194;2022-11-20T02:26:28;2.00;99.90
18444;DHT22;9350;53.176;8.194;2022-11-20T02:28:55;1.90;99.90
18444;DHT22;9350;53.176;8.194;2022-11-20T02:31:22;2.00;99.90
18444;DHT22;9350;53.176;8.194;2022-11-20T02:33:54;2.00;99.90
18444;DHT22;9350;53.176;8.194;2022-11-20T02:36:21;2.00;99.90
18444;DHT22;9350;53.176;8.194;2022-11-20T02:38:49;2.00;99.90
18444;DHT22;9350;53.176;8.194;2022-11-20T02:41:18;2.00;99.90
18444;DHT22;9350;53.176;8.194;2022-11-20T02:43:45;2.00;99.90
18444;DHT22;9350;53.176;8.194;2022-11-20T02:46:12;2.00;99.90
18444;DHT22;9350;53.176;8.194;2022-11-20T02:48:40;2.00;99.90
18444;DHT22;9350;53.176;8.194;2022-11-20T02:51:07;2.10;99.90
18444;DHT22;9350;53.176;8.194;2022-11-20T02:53:33;2.10;99.90
18444;DHT22;9350;53.176;8.194;2022-11-20T02:56:00;2.10;99.90
18444;DHT22;9350;53.176;8.194;2022-11-20T02:58:29;2.10;99.90
18444;DHT22;9350;53.176;8.194;2022-11-20T03:00:55;2.10;99.90
18444;DHT22;9350;53.176;8.194;2022-11-20T03:03:22;2.00;99.90
18444;DHT22;9350;53.176;8.194;2022-11-20T03:05:49;2.10;99.90
18444;DHT22;9350;53.176;8.194;2022-11-20T03:08:15;2.10;99.90
18444;DHT22;9350;53.176;8.194;2022-11-20T03:10:42;2.10;99.90
18444;DHT22;9350;53.176;8.194;2022-11-20T03:13:09;2.10;99.90
18444;DHT22;9350;53.176;8.194;2022-11-20T03:15:37;2.10;99.90
18444;DHT22;9350;53.176;8.194;2022-11-20T03:18:04;2.10;99.90
18444;DHT22;9350;53.176;8.194;2022-11-20T03:20:32;2.00;99.90
18444;DHT22;9350;53.176;8.194;2022-11-20T03:22:59;2.10;99.90
18444;DHT22;9350;53.176;8.194;2022-11-20T03:25:26;2.10;99.90
18444;DHT22;9350;53.176;8.194;2022-11-20T03:27:53;2.10;99.90
18444;DHT22;9350;53.176;8.194;2022-11-20T03:30:20;2.10;99.90
18444;DHT22;9350;53.176;8.194;2022-11-20T03:32:48;2.10;99.90
18444;DHT22;9350;53.176;8.194;2022-11-20T03:35:15;2.10;99.90
18444;DHT22;9350;53.176;8.194;2022-11-20T03:37:43;2.10;99.90
18444;DHT22;9350;53.176;8.194;2022-11-20T03:40:11;2.10;99.90
18444;DHT22;9350;53.176;8.194;2022-11-20T03:42:38;2.10;99.90
18444;DHT22;9350;53.176;8.194;2022-11-20T03:45:14;2.10;99.90
18444;DHT22;9350;53.176;8.194;2022-11-20T03:47:41;2.10;99.90
18444;DHT22;9350;53.176;8.194;2022-11-20T03:50:10;2.20;99.90
18444;DHT22;9350;53.176;8.194;2022-11-20T03:52:38;2.10;99.90
18444;DHT22;9350;53.176;8.194;2022-11-20T03:55:06;2.10;99.90
18444;DHT22;9350;53.176;8.194;2022-11-20T03:57:32;2.10;99.90
18444;DHT22;9350;53.176;8.194;2022-11-20T03:59:59;2.10;99.90
18444;DHT22;9350;53.176;8.194;2022-11-20T04:02:26;2.20;99.90
18444;DHT22;9350;53.176;8.194;2022-11-20T04:04:53;2.10;99.90
18444;DHT22;9350;53.176;8.194;2022-11-20T04:07:21;2.00;99.90
18444;DHT22;9350;53.176;8.194;2022-11-20T04:09:47;2.00;99.90
18444;DHT22;9350;53.176;8.194;2022-11-20T04:12:14;2.10;99.90
18444;DHT22;9350;53.176;8.194;2022-11-20T04:14:41;2.20;99.90
18444;DHT22;9350;53.176;8.194;2022-11-20T04:17:08;2.10;99.90
18444;DHT22;9350;53.176;8.194;2022-11-20T04:19:34;2.10;99.90
18444;DHT22;9350;53.176;8.194;2022-11-20T04:22:01;1.90;99.90
18444;DHT22;9350;53.176;8.194;2022-11-20T04:24:29;2.00;99.90
18444;DHT22;9350;53.176;8.194;2022-11-20T04:26:56;2.20;99.90
18444;DHT22;9350;53.176;8.194;2022-11-20T04:29:23;2.20;99.90
18444;DHT22;9350;53.176;8.194;2022-11-20T04:31:49;2.20;99.90
18444;DHT22;9350;53.176;8.194;2022-11-20T04:34:16;2.30;99.90
18444;DHT22;9350;53.176;8.194;2022-11-20T04:36:43;2.20;99.90
18444;DHT22;9350;53.176;8.194;2022-11-20T04:39:13;2.20;99.90
18444;DHT22;9350;53.176;8.194;2022-11-20T04:41:42;2.20;99.90
18444;DHT22;9350;53.176;8.194;2022-11-20T04:44:10;2.20;99.90
18444;DHT22;9350;53.176;8.194;2022-11-20T04:46:38;2.20;99.90
18444;DHT22;9350;53.176;8.194;2022-11-20T04:49:06;2.20;99.90
18444;DHT22;9350;53.176;8.194;2022-11-20T04:51:34;2.20;99.90
18444;DHT22;9350;53.176;8.194;2022-11-20T04:54:00;2.20;99.90
18444;DHT22;9350;53.176;8.194;2022-11-20T04:56:27;2.20;99.90
18444;DHT22;9350;53.176;8.194;2022-11-20T04:58:55;2.20;99.90
18444;DHT22;9350;53.176;8.194;2022-11-20T05:01:23;2.20;99.90
18444;DHT22;9350;53.176;8.194;2022-11-20T05:03:50;2.20;99.90
18444;DHT22;9350;53.176;8.194;2022-11-20T05:06:19;2.20;99.90
18444;DHT22;9350;53.176;8.194;2022-11-20T05:08:46;2.20;99.90
18444;DHT22;9350;53.176;8.194;2022-11-20T05:11:14;2.20;99.90
18444;DHT22;9350;53.176;8.194;2022-11-20T05:13:42;2.20;99.90
18444;DHT22;9350;53.176;8.194;2022-11-20T05:16:12;2.20;99.90
18444;DHT22;9350;53.176;8.194;2022-11-20T05:18:39;2.20;99.90
18444;DHT22;9350;53.176;8.194;2022-11-20T05:21:08;2.20;99.90
18444;DHT22;9350;53.176;8.194;2022-11-20T05:23:35;2.20;99.90
18444;DHT22;9350;53.176;8.194;2022-11-20T05:26:03;2.20;99.90
18444;DHT22;9350;53.176;8.194;2022-11-20T05:28:30;2.10;99.90
18444;DHT22;9350;53.176;8.194;2022-11-20T05:31:04;2.20;99.90
18444;DHT22;9350;53.176;8.194;2022-11-20T05:33:33;2.20;99.90
18444;DHT22;9350;53.176;8.194;2022-11-20T05:35:59;2.20;99.90
18444;DHT22;9350;53.176;8.194;2022-11-20T05:38:26;2.20;99.90
18444;DHT22;9350;53.176;8.194;2022-11-20T05:40:53;2.20;99.90
18444;DHT22;9350;53.176;8.194;2022-11-20T05:43:19;2.20;99.90
18444;DHT22;9350;53.176;8.194;2022-11-20T05:45:52;2.20;99.90
18444;DHT22;9350;53.176;8.194;2022-11-20T05:48:19;2.20;99.90
18444;DHT22;9350;53.176;8.194;2022-11-20T05:50:47;2.30;99.90
18444;DHT22;9350;53.176;8.194;2022-11-20T05:53:14;2.20;99.90
18444;DHT22;9350;53.176;8.194;2022-11-20T05:55:41;2.30;99.90
18444;DHT22;9350;53.176;8.194;2022-11-20T05:58:07;2.20;99.90
18444;DHT22;9350;53.176;8.194;2022-11-20T06:00:34;2.20;99.90
18444;DHT22;9350;53.176;8.194;2022-11-20T06:03:01;2.20;99.90
18444;DHT22;9350;53.176;8.194;2022-11-20T06:05:28;2.20;99.90
18444;DHT22;9350;53.176;8.194;2022-11-20T06:07:56;2.20;99.90
18444;DHT22;9350;53.176;8.194;2022-11-20T06:10:22;2.20;99.90
18444;DHT22;9350;53.176;8.194;2022-11-20T06:12:49;2.20;99.90
18444;DHT22;9350;53.176;8.194;2022-11-20T06:15:16;2.10;99.90
18444;DHT22;9350;53.176;8.194;2022-11-20T06:17:43;2.10;99.90
18444;DHT22;9350;53.176;8.194;2022-11-20T06:20:10;2.10;99.90
18444;DHT22;9350;53.176;8.194;2022-11-20T06:22:37;2.10;99.90
18444;DHT22;9350;53.176;8.194;2022-11-20T06:25:05;2.10;99.90
18444;DHT22;9350;53.176;8.194;2022-11-20T06:27:32;2.10;99.90
18444;DHT22;9350;53.176;8.194;2022-11-20T06:29:59;2.00;99.90
18444;DHT22;9350;53.176;8.194;2022-11-20T06:32:26;2.10;99.90
18444;DHT22;9350;53.176;8.194;2022-11-20T06:34:53;2.10;99.90
18444;DHT22;9350;53.176;8.194;2022-11-20T06:37:19;2.10;99.90
18444;DHT22;9350;53.176;8.194;2022-11-20T06:39:46;2.10;99.90
18444;DHT22;9350;53.176;8.194;2022-11-20T06:42:14;2.10;99.90
18444;DHT22;9350;53.176;8.194;2022-11-20T06:44:41;2.10;99.90
18444;DHT22;9350;53.176;8.194;2022-11-20T06:47:07;2.10;99.90
18444;DHT22;9350;53.176;8.194;2022-11-20T06:49:34;2.10;99.90
18444;DHT22;9350;53.176;8.194;2022-11-20T06:52:02;2.10;99.90
18444;DHT22;9350;53.176;8.194;2022-11-20T06:54:29;2.10;99.90
18444;DHT22;9350;53.176;8.194;2022-11-20T06:56:56;2.10;99.90
18444;DHT22;9350;53.176;8.194;2022-11-20T06:59:24;2.20;99.90
18444;DHT22;9350;53.176;8.194;2022-11-20T07:01:51;2.10;99.90
18444;DHT22;9350;53.176;8.194;2022-11-20T07:04:17;2.10;99.90
18444;DHT22;9350;53.176;8.194;2022-11-20T07:06:44;2.10;99.90
18444;DHT22;9350;53.176;8.194;2022-11-20T07:09:11;2.10;99.90
18444;DHT22;9350;53.176;8.194;2022-11-20T07:11:38;2.10;99.90
18444;DHT22;9350;53.176;8.194;2022-11-20T07:14:04;2.10;99.90
18444;DHT22;9350;53.176;8.194;2022-11-20T07:16:32;1.90;99.90
18444;DHT22;9350;53.176;8.194;2022-11-20T07:18:59;1.90;99.90
18444;DHT22;9350;53.176;8.194;2022-11-20T07:21:26;2.10;99.90
18444;DHT22;9350;53.176;8.194;2022-11-20T07:23:53;2.10;99.90
18444;DHT22;9350;53.176;8.194;2022-11-20T07:26:20;2.00;99.90
18444;DHT22;9350;53.176;8.194;2022-11-20T07:28:47;2.00;99.90
18444;DHT22;9350;53.176;8.194;2022-11-20T07:31:13;2.00;99.90
18444;DHT22;9350;53.176;8.194;2022-11-20T07:33:42;2.00;99.90
18444;DHT22;9350;53.176;8.194;2022-11-20T07:36:09;2.00;99.90
18444;DHT22;9350;53.176;8.194;2022-11-20T07:38:37;2.00;99.90
18444;DHT22;9350;53.176;8.194;2022-11-20T07:41:04;1.90;99.90
18444;DHT22;9350;53.176;8.194;2022-11-20T07:43:31;2.00;99.90
18444;DHT22;9350;53.176;8.194;2022-11-20T07:45:58;2.00;99.90
18444;DHT22;9350;53.176;8.194;2022-11-20T07:48:25;2.00;99.90
18444;DHT22;9350;53.176;8.194;2022-11-20T07:50:54;2.10;99.90
18444;DHT22;9350;53.176;8.194;2022-11-20T07:53:21;2.00;99.90
18444;DHT22;9350;53.176;8.194;2022-11-20T07:55:48;2.00;99.90
18444;DHT22;9350;53.176;8.194;2022-11-20T07:58:17;2.10;99.90
18444;DHT22;9350;53.176;8.194;2022-11-20T08:00:44;2.10;99.90
18444;DHT22;9350;53.176;8.194;2022-11-20T08:03:11;2.20;99.90
18444;DHT22;9350;53.176;8.194;2022-11-20T08:05:37;2.20;99.90
18444;DHT22;9350;53.176;8.194;2022-11-20T08:08:05;2.20;99.90
18444;DHT22;9350;53.176;8.194;2022-11-20T08:10:33;2.20;99.90
18444;DHT22;9350;53.176;8.194;2022-11-20T08:12:59;2.20;99.90
18444;DHT22;9350;53.176;8.194;2022-11-20T08:15:48;2.30;99.90
18444;DHT22;9350;53.176;8.194;2022-11-20T08:18:15;2.30;99.90
18444;DHT22;9350;53.176;8.194;2022-11-20T08:20:42;2.20;99.90
18444;DHT22;9350;53.176;8.194;2022-11-20T08:23:11;2.30;99.90
18444;DHT22;9350;53.176;8.194;2022-11-20T08:25:38;2.30;99.90
18444;DHT22;9350;53.176;8.194;2022-11-20T08:28:06;2.30;99.90
18444;DHT22;9350;53.176;8.194;2022-11-20T08:30:34;2.30;99.90
18444;DHT22;9350;53.176;8.194;2022-11-20T08:33:02;2.30;99.90
18444;DHT22;9350;53.176;8.194;2022-11-20T08:35:32;2.20;99.90
18444;DHT22;9350;53.176;8.194;2022-11-20T08:38:00;2.20;99.90
18444;DHT22;9350;53.176;8.194;2022-11-20T08:40:28;2.30;99.90
18444;DHT22;9350;53.176;8.194;2022-11-20T08:42:54;2.30;99.90
18444;DHT22;9350;53.176;8.194;2022-11-20T08:45:21;2.30;99.90
18444;DHT22;9350;53.176;8.194;2022-11-20T08:47:48;2.20;99.90
18444;DHT22;9350;53.176;8.194;2022-11-20T08:50:16;2.40;99.90
18444;DHT22;9350;53.176;8.194;2022-11-20T08:52:43;2.30;99.90
18444;DHT22;9350;53.176;8.194;2022-11-20T08:55:10;2.30;99.90
18444;DHT22;9350;53.176;8.194;2022-11-20T08:57:38;2.30;99.90
18444;DHT22;9350;53.176;8.194;2022-11-20T09:00:06;2.40;99.90
18444;DHT22;9350;53.176;8.194;2022-11-20T09:02:33;2.30;99.90
18444;DHT22;9350;53.176;8.194;2022-11-20T09:05:01;2.30;99.90
18444;DHT22;9350;53.176;8.194;2022-11-20T09:07:28;2.30;99.90
18444;DHT22;9350;53.176;8.194;2022-11-20T09:09:55;2.30;99.90
18444;DHT22;9350;53.176;8.194;2022-11-20T09:12:22;2.30;99.90
18444;DHT22;9350;53.176;8.194;2022-11-20T09:14:50;2.30;99.90
18444;DHT22;9350;53.176;8.194;2022-11-20T09:17:17;2.30;99.90
18444;DHT22;9350;53.176;8.194;2022-11-20T09:19:45;2.30;99.90
18444;DHT22;9350;53.176;8.194;2022-11-20T09:22:12;2.40;99.90
18444;DHT22;9350;53.176;8.194;2022-11-20T09:24:39;2.40;99.90
18444;DHT22;9350;53.176;8.194;2022-11-20T09:27:06;2.40;99.90
18444;DHT22;9350;53.176;8.194;2022-11-20T09:29:32;2.40;99.90
18444;DHT22;9350;53.176;8.194;2022-11-20T09:32:00;2.40;99.90
18444;DHT22;9350;53.176;8.194;2022-11-20T09:34:27;2.40;99.90
18444;DHT22;9350;53.176;8.194;2022-11-20T09:36:54;2.60;99.90
18444;DHT22;9350;53.176;8.194;2022-11-20T09:39:20;2.60;99.90
18444;DHT22;9350;53.176;8.194;2022-11-20T09:42:17;2.50;99.90
18444;DHT22;9350;53.176;8.194;2022-11-20T09:44:54;2.50;99.90
18444;DHT22;9350;53.176;8.194;2022-11-20T09:47:32;2.50;99.90
18444;DHT22;9350;53.176;8.194;2022-11-20T09:50:10;2.40;99.90
18444;DHT22;9350;53.176;8.194;2022-11-20T09:52:46;2.50;99.90
18444;DHT22;9350;53.176;8.194;2022-11-20T09:55:16;2.50;99.90
18444;DHT22;9350;53.176;8.194;2022-11-20T09:57:46;2.60;99.90
18444;DHT22;9350;53.176;8.194;2022-11-20T10:00:15;2.50;99.90
18444;DHT22;9350;53.176;8.194;2022-11-20T10:02:48;2.60;99.90
18444;DHT22;9350;53.176;8.194;2022-11-20T10:05:19;2.60;99.90
18444;DHT22;9350;53.176;8.194;2022-11-20T10:07:52;2.60;99.90
18444;DHT22;9350;53.176;8.194;2022-11-20T10:10:29;2.60;99.90
18444;DHT22;9350;53.176;8.194;2022-11-20T10:13:09;2.60;99.90
18444;DHT22;9350;53.176;8.194;2022-11-20T10:15:45;2.70;99.90
18444;DHT22;9350;53.176;8.194;2022-11-20T10:18:23;2.70;99.90
18444;DHT22;9350;53.176;8.194;2022-11-20T10:21:00;2.70;99.90
18444;DHT22;9350;53.176;8.194;2022-11-20T10:23:43;2.70;99.90
18444;DHT22;9350;53.176;8.194;2022-11-20T10:26:17;2.70;99.90
18444;DHT22;9350;53.176;8.194;2022-11-20T10:29:02;2.70;99.90
18444;DHT22;9350;53.176;8.194;2022-11-20T10:31:35;2.70;99.90
18444;DHT22;9350;53.176;8.194;2022-11-20T10:34:07;2.70;99.90
18444;DHT22;9350;53.176;8.194;2022-11-20T10:36:41;2.70;99.90
18444;DHT22;9350;53.176;8.194;2022-11-20T10:39:16;2.80;99.90
18444;DHT22;9350;53.176;8.194;2022-11-20T10:41:45;2.80;99.90
18444;DHT22;9350;53.176;8.194;2022-11-20T10:44:16;2.80;99.90
18444;DHT22;9350;53.176;8.194;2022-11-20T10:47:04;2.90;99.90
18444;DHT22;9350;53.176;8.194;2022-11-20T10:49:34;2.90;99.90
18444;DHT22;9350;53.176;8.194;2022-11-20T10:52:06;2.90;99.90
18444;DHT22;9350;53.176;8.194;2022-11-20T10:54:40;3.00;99.90
18444;DHT22;9350;53.176;8.194;2022-11-20T10:57:19;3.00;99.90
18444;DHT22;9350;53.176;8.194;2022-11-20T11:00:02;3.00;99.90
18444;DHT22;9350;53.176;8.194;2022-11-20T11:02:39;3.00;99.90
18444;DHT22;9350;53.176;8.194;2022-11-20T11:05:24;3.10;99.90
18444;DHT22;9350;53.176;8.194;2022-11-20T11:07:55;3.10;99.90
18444;DHT22;9350;53.176;8.194;2022-11-20T11:10:25;3.10;99.90
18444;DHT22;9350;53.176;8.194;2022-11-20T11:12:54;3.10;99.90
18444;DHT22;9350;53.176;8.194;2022-11-20T11:15:29;3.10;99.90
18444;DHT22;9350;53.176;8.194;2022-11-20T11:17:56;3.10;99.90
18444;DHT22;9350;53.176;8.194;2022-11-20T11:20:25;3.20;99.90
18444;DHT22;9350;53.176;8.194;2022-11-20T11:22:53;3.20;99.90
18444;DHT22;9350;53.176;8.194;2022-11-20T11:25:27;3.20;99.90
18444;DHT22;9350;53.176;8.194;2022-11-20T11:27:57;3.30;99.90
18444;DHT22;9350;53.176;8.194;2022-11-20T11:30:26;3.30;99.90
18444;DHT22;9350;53.176;8.194;2022-11-20T11:33:03;3.40;99.90
18444;DHT22;9350;53.176;8.194;2022-11-20T11:35:32;3.40;99.90
18444;DHT22;9350;53.176;8.194;2022-11-20T11:38:04;3.30;99.90
18444;DHT22;9350;53.176;8.194;2022-11-20T11:40:35;3.20;99.90
18444;DHT22;9350;53.176;8.194;2022-11-20T11:43:05;3.20;99.90
18444;DHT22;9350;53.176;8.194;2022-11-20T11:45:54;3.20;99.90
18444;DHT22;9350;53.176;8.194;2022-11-20T11:48:20;3.20;99.90
18444;DHT22;9350;53.176;8.194;2022-11-20T11:50:50;3.20;99.90
18444;DHT22;9350;53.176;8.194;2022-11-20T11:53:19;3.20;99.90
18444;DHT22;9350;53.176;8.194;2022-11-20T11:55:50;3.20;99.90
18444;DHT22;9350;53.176;8.194;2022-11-20T11:58:29;3.20;99.90
18444;DHT22;9350;53.176;8.194;2022-11-20T12:01:04;3.10;99.90
18444;DHT22;9350;53.176;8.194;2022-11-20T12:03:35;3.20;99.90
18444;DHT22;9350;53.176;8.194;2022-11-20T12:06:10;3.20;99.90
18444;DHT22;9350;53.176;8.194;2022-11-20T12:08:44;3.20;99.90
18444;DHT22;9350;53.176;8.194;2022-11-20T12:11:20;3.20;99.90
18444;DHT22;9350;53.176;8.194;2022-11-20T12:13:53;3.20;99.90
18444;DHT22;9350;53.176;8.194;2022-11-20T12:16:20;3.30;99.90
18444;DHT22;9350;53.176;8.194;2022-11-20T12:18:49;3.30;99.90
18444;DHT22;9350;53.176;8.194;2022-11-20T12:21:31;3.30;99.90
18444;DHT22;9350;53.176;8.194;2022-11-20T12:24:37;3.30;99.90
18444;DHT22;9350;53.176;8.194;2022-11-20T12:27:31;3.30;99.90
18444;DHT22;9350;53.176;8.194;2022-11-20T12:30:02;3.30;99.90
18444;DHT22;9350;53.176;8.194;2022-11-20T12:33:05;3.30;99.90
18444;DHT22;9350;53.176;8.194;2022-11-20T12:35:44;3.30;99.90
18444;DHT22;9350;53.176;8.194;2022-11-20T12:41:22;3.30;99.90
18444;DHT22;9350;53.176;8.194;2022-11-20T12:44:21;3.30;99.90
18444;DHT22;9350;53.176;8.194;2022-11-20T12:47:14;3.30;99.90
18444;DHT22;9350;53.176;8.194;2022-11-20T12:49:48;3.30;99.90
18444;DHT22;9350;53.176;8.194;2022-11-20T12:52:34;3.30;99.90
18444;DHT22;9350;53.176;8.194;2022-11-20T12:55:21;3.30;99.90
18444;DHT22;9350;53.176;8.194;2022-11-20T12:57:57;3.20;99.90
18444;DHT22;9350;53.176;8.194;2022-11-20T13:00:25;3.20;99.90
18444;DHT22;9350;53.176;8.194;2022-11-20T13:03:03;3.40;99.90
18444;DHT22;9350;53.176;8.194;2022-11-20T13:05:38;3.20;99.90
18444;DHT22;9350;53.176;8.194;2022-11-20T13:08:11;3.30;99.90
18444;DHT22;9350;53.176;8.194;2022-11-20T13:10:46;3.20;99.90
18444;DHT22;9350;53.176;8.194;2022-11-20T13:13:19;3.30;99.90
18444;DHT22;9350;53.176;8.194;2022-11-20T13:15:55;3.30;99.90
18444;DHT22;9350;53.176;8.194;2022-11-20T13:18:22;3.30;99.90
18444;DHT22;9350;53.176;8.194;2022-11-20T13:20:49;3.30;99.90
18444;DHT22;9350;53.176;8.194;2022-11-20T13:23:24;3.30;99.90
18444;DHT22;9350;53.176;8.194;2022-11-20T13:28:31;3.50;99.90
18444;DHT22;9350;53.176;8.194;2022-11-20T13:30:58;3.50;99.90
18444;DHT22;9350;53.176;8.194;2022-11-20T13:33:29;3.50;99.90
18444;DHT22;9350;53.176;8.194;2022-11-20T13:35:58;3.50;99.90
18444;DHT22;9350;53.176;8.194;2022-11-20T13:38:26;3.60;99.90
18444;DHT22;9350;53.176;8.194;2022-11-20T13:40:54;3.70;99.90
18444;DHT22;9350;53.176;8.194;2022-11-20T13:43:26;3.60;99.90
18444;DHT22;9350;53.176;8.194;2022-11-20T13:45:57;3.60;99.90
18444;DHT22;9350;53.176;8.194;2022-11-20T13:48:26;3.70;99.90
18444;DHT22;9350;53.176;8.194;2022-11-20T13:51:05;3.70;99.90
18444;DHT22;9350;53.176;8.194;2022-11-20T13:53:48;3.60;99.90
18444;DHT22;9350;53.176;8.194;2022-11-20T13:56:23;3.60;99.90
18444;DHT22;9350;53.176;8.194;2022-11-20T13:58:59;3.60;99.90
18444;DHT22;9350;53.176;8.194;2022-11-20T14:01:31;3.60;99.90
18444;DHT22;9350;53.176;8.194;2022-11-20T14:03:58;3.60;99.90
18444;DHT22;9350;53.176;8.194;2022-11-20T14:06:27;3.60;99.90
18444;DHT22;9350;53.176;8.194;2022-11-20T14:08:55;3.60;99.90
18444;DHT22;9350;53.176;8.194;2022-11-20T14:11:23;3.60;99.90
18444;DHT22;9350;53.176;8.194;2022-11-20T14:14:01;3.60;99.90
18444;DHT22;9350;53.176;8.194;2022-11-20T14:16:33;3.60;99.90
18444;DHT22;9350;53.176;8.194;2022-11-20T14:19:25;3.50;99.90
18444;DHT22;9350;53.176;8.194;2022-11-20T14:21:53;3.50;99.90
18444;DHT22;9350;53.176;8.194;2022-11-20T14:24:22;3.50;99.90
18444;DHT22;9350;53.176;8.194;2022-11-20T14:26:50;3.60;99.90
18444;DHT22;9350;53.176;8.194;2022-11-20T14:29:19;3.40;99.90
18444;DHT22;9350;53.176;8.194;2022-11-20T14:31:50;3.40;99.90
18444;DHT22;9350;53.176;8.194;2022-11-20T14:34:20;3.30;99.90
18444;DHT22;9350;53.176;8.194;2022-11-20T14:36:47;3.40;99.90
18444;DHT22;9350;53.176;8.194;2022-11-20T14:39:20;3.30;99.90
18444;DHT22;9350;53.176;8.194;2022-11-20T14:41:50;3.30;99.90
18444;DHT22;9350;53.176;8.194;2022-11-20T14:44:18;3.30;99.90
18444;DHT22;9350;53.176;8.194;2022-11-20T14:46:48;3.30;99.90
18444;DHT22;9350;53.176;8.194;2022-11-20T14:49:14;3.20;99.90
18444;DHT22;9350;53.176;8.194;2022-11-20T14:51:41;3.30;99.90
18444;DHT22;9350;53.176;8.194;2022-11-20T14:54:12;3.20;99.90
18444;DHT22;9350;53.176;8.194;2022-11-20T14:56:38;3.20;99.90
18444;DHT22;9350;53.176;8.194;2022-11-20T14:59:05;3.10;99.90
18444;DHT22;9350;53.176;8.194;2022-11-20T15:01:33;3.10;99.90
18444;DHT22;9350;53.176;8.194;2022-11-20T15:04:06;3.10;99.90
18444;DHT22;9350;53.176;8.194;2022-11-20T15:06:33;3.10;99.90
18444;DHT22;9350;53.176;8.194;2022-11-20T15:09:00;3.10;99.90
18444;DHT22;9350;53.176;8.194;2022-11-20T15:11:30;3.10;99.90
18444;DHT22;9350;53.176;8.194;2022-11-20T15:13:58;3.00;99.90
18444;DHT22;9350;53.176;8.194;2022-11-20T15:16:28;2.90;99.90
18444;DHT22;9350;53.176;8.194;2022-11-20T15:18:55;3.00;99.90
18444;DHT22;9350;53.176;8.194;2022-11-20T15:21:23;2.80;99.90
18444;DHT22;9350;53.176;8.194;2022-11-20T15:23:50;2.80;99.90
18444;DHT22;9350;53.176;8.194;2022-11-20T15:26:25;2.70;99.90
18444;DHT22;9350;53.176;8.194;2022-11-20T15:28:52;2.70;99.90
18444;DHT22;9350;53.176;8.194;2022-11-20T15:31:21;2.70;99.90
18444;DHT22;9350;53.176;8.194;2022-11-20T15:33:49;2.60;99.90
18444;DHT22;9350;53.176;8.194;2022-11-20T15:36:15;2.60;99.90
18444;DHT22;9350;53.176;8.194;2022-11-20T15:38:44;2.60;99.90
18444;DHT22;9350;53.176;8.194;2022-11-20T15:41:10;2.50;99.90
18444;DHT22;9350;53.176;8.194;2022-11-20T15:43:38;2.50;99.90
18444;DHT22;9350;53.176;8.194;2022-11-20T15:46:08;2.40;99.90
18444;DHT22;9350;53.176;8.194;2022-11-20T15:48:37;2.30;99.90
18444;DHT22;9350;53.176;8.194;2022-11-20T15:51:11;2.20;99.90
18444;DHT22;9350;53.176;8.194;2022-11-20T15:53:44;2.20;99.90
18444;DHT22;9350;53.176;8.194;2022-11-20T15:56:12;2.20;99.90
18444;DHT22;9350;53.176;8.194;2022-11-20T15:58:39;2.10;99.90
18444;DHT22;9350;53.176;8.194;2022-11-20T16:01:08;2.00;99.90
18444;DHT22;9350;53.176;8.194;2022-11-20T16:03:36;2.00;99.90
18444;DHT22;9350;53.176;8.194;2022-11-20T16:06:02;2.00;99.90
18444;DHT22;9350;53.176;8.194;2022-11-20T16:08:29;1.90;99.90
18444;DHT22;9350;53.176;8.194;2022-11-20T16:10:57;1.90;99.90
18444;DHT22;9350;53.176;8.194;2022-11-20T16:13:24;1.90;99.90
18444;DHT22;9350;53.176;8.194;2022-11-20T16:16:14;1.80;99.90
18444;DHT22;9350;53.176;8.194;2022-11-20T16:18:45;1.80;99.90
18444;DHT22;9350;53.176;8.194;2022-11-20T16:21:11;1.80;99.90
18444;DHT22;9350;53.176;8.194;2022-11-20T16:23:39;1.80;99.90
18444;DHT22;9350;53.176;8.194;2022-11-20T16:26:10;1.80;99.90